createdAt,value
2022-09-03T00:00:58.262Z,982
2022-09-03T00:03:00.206Z,982.1
2022-09-03T00:05:01.998Z,982.1
2022-09-03T00:09:05.740Z,982.1
2022-09-03T00:11:07.500Z,982.2
2022-09-03T00:13:09.175Z,982.1
2022-09-03T00:15:10.876Z,982.2
2022-09-03T00:17:12.655Z,982.2
2022-09-03T00:19:14.246Z,982.1
2022-09-03T00:21:15.838Z,982.1
2022-09-03T00:23:17.267Z,982.1
2022-09-03T00:25:18.635Z,982.1
2022-09-03T00:27:19.996Z,982.1
2022-09-03T00:29:21.819Z,982.1
2022-09-03T00:31:23.499Z,982.1
2022-09-03T00:33:25.263Z,982.1
2022-09-03T00:35:27.047Z,982.1
2022-09-03T00:37:28.507Z,982.1
2022-09-03T00:39:30.072Z,982
2022-09-03T00:41:31.692Z,982
2022-09-03T00:43:32.662Z,982
2022-09-03T00:45:34.043Z,982
2022-09-03T00:47:35.943Z,981.9
2022-09-03T00:49:37.327Z,982
2022-09-03T00:51:38.825Z,981.9
2022-09-03T00:53:40.487Z,982
2022-09-03T00:55:42.323Z,982
2022-09-03T00:57:44.169Z,982
2022-09-03T00:59:45.863Z,982.1
2022-09-03T01:01:46.910Z,982
2022-09-03T01:03:48.703Z,982
2022-09-03T01:05:49.660Z,982
2022-09-03T01:07:51.537Z,982.1
2022-09-03T01:09:53.094Z,982
2022-09-03T01:11:54.464Z,982
2022-09-03T01:13:56.222Z,982
2022-09-03T01:15:57.574Z,982
2022-09-03T01:17:59.291Z,981.9
2022-09-03T01:20:01.123Z,982
2022-09-03T01:22:02.927Z,982.1
2022-09-03T01:24:04.134Z,982
2022-09-03T01:26:05.462Z,982
2022-09-03T01:28:07.000Z,982
2022-09-03T01:30:08.461Z,981.9
2022-09-03T01:34:10.784Z,981.8
2022-09-03T01:36:12.723Z,981.9
2022-09-03T01:38:14.552Z,981.9
2022-09-03T01:40:15.740Z,982
2022-09-03T01:42:20.629Z,981.8
2022-09-03T01:44:18.393Z,981.9
2022-09-03T01:46:19.732Z,981.9
2022-09-03T01:48:20.818Z,981.9
2022-09-03T01:50:22.235Z,981.9
2022-09-03T01:52:23.865Z,981.9
2022-09-03T01:54:25.701Z,981.9
2022-09-03T01:56:27.129Z,982
2022-09-03T02:00:29.938Z,981.9
2022-09-03T02:02:31.947Z,982
2022-09-03T02:04:33.076Z,982
2022-09-03T02:06:34.270Z,982
2022-09-03T02:08:36.041Z,982
2022-09-03T02:10:37.874Z,982
2022-09-03T02:12:39.333Z,981.9
2022-09-03T02:14:40.937Z,981.9
2022-09-03T02:16:41.940Z,981.8
2022-09-03T02:18:43.126Z,981.9
2022-09-03T02:20:44.975Z,981.9
2022-09-03T02:22:46.215Z,981.8
2022-09-03T02:24:47.509Z,981.9
2022-09-03T02:26:49.252Z,981.9
2022-09-03T02:28:50.536Z,981.8
2022-09-03T02:30:52.019Z,981.9
2022-09-03T02:32:53.243Z,981.8
2022-09-03T02:34:54.386Z,981.8
2022-09-03T02:36:56.012Z,981.8
2022-09-03T02:38:57.326Z,981.8
2022-09-03T02:40:59.100Z,981.9
2022-09-03T02:43:00.164Z,981.9
2022-09-03T02:45:01.397Z,981.9
2022-09-03T02:47:03.060Z,981.9
2022-09-03T02:49:04.035Z,981.8
2022-09-03T02:51:13.639Z,981.8
2022-09-03T02:53:07.031Z,981.9
2022-09-03T02:55:08.864Z,981.8
2022-09-03T02:59:12.083Z,981.9
2022-09-03T03:01:21.800Z,981.9
2022-09-03T03:03:15.502Z,981.7
2022-09-03T03:05:17.217Z,981.8
2022-09-03T03:07:18.846Z,981.7
2022-09-03T03:09:20.424Z,981.8
2022-09-03T03:11:21.982Z,981.8
2022-09-03T03:13:23.419Z,981.9
2022-09-03T03:15:24.562Z,981.8
2022-09-03T03:17:26.295Z,981.8
2022-09-03T03:19:27.495Z,981.8
2022-09-03T03:21:28.965Z,981.9
2022-09-03T03:23:30.224Z,981.8
2022-09-03T03:25:31.954Z,981.8
2022-09-03T03:27:33.420Z,981.9
2022-09-03T03:29:35.162Z,981.8
2022-09-03T03:33:38.049Z,981.8
2022-09-03T03:35:39.189Z,981.8
2022-09-03T03:37:40.746Z,981.9
2022-09-03T03:41:43.814Z,981.9
2022-09-03T03:43:45.176Z,981.9
2022-09-03T03:45:46.966Z,981.9
2022-09-03T03:47:48.061Z,981.8
2022-09-03T03:49:49.531Z,981.8
2022-09-03T03:51:50.619Z,981.7
2022-09-03T03:53:51.756Z,981.6
2022-09-03T03:57:54.073Z,981.8
2022-09-03T03:59:55.496Z,981.8
2022-09-03T04:01:57.089Z,981.8
2022-09-03T04:03:58.240Z,981.8
2022-09-03T04:05:59.303Z,981.8
2022-09-03T04:08:01.250Z,981.8
2022-09-03T04:10:02.330Z,981.8
2022-09-03T04:12:03.409Z,981.7
2022-09-03T04:14:04.538Z,981.7
2022-09-03T04:16:05.593Z,981.7
2022-09-03T04:18:07.277Z,981.8
2022-09-03T04:20:08.704Z,981.8
2022-09-03T04:22:10.055Z,981.8
2022-09-03T04:24:11.055Z,981.7
2022-09-03T04:26:12.618Z,981.8
2022-09-03T04:28:13.649Z,981.8
2022-09-03T04:30:15.224Z,981.7
2022-09-03T04:32:16.530Z,981.8
2022-09-03T04:34:17.602Z,981.8
2022-09-03T04:36:18.604Z,981.8
2022-09-03T04:38:19.975Z,981.8
2022-09-03T04:40:21.498Z,981.8
2022-09-03T04:42:23.101Z,981.9
2022-09-03T04:44:24.134Z,981.9
2022-09-03T04:46:25.861Z,981.9
2022-09-03T04:48:27.660Z,981.8
2022-09-03T04:50:29.522Z,981.9
2022-09-03T04:52:30.516Z,981.8
2022-09-03T04:54:31.517Z,981.9
2022-09-03T04:56:33.015Z,981.9
2022-09-03T04:58:33.971Z,981.9
2022-09-03T05:00:34.983Z,981.9
2022-09-03T05:02:36.708Z,981.8
2022-09-03T05:04:37.815Z,981.9
2022-09-03T05:06:38.856Z,981.9
2022-09-03T05:08:49.517Z,981.9
2022-09-03T05:10:41.757Z,981.9
2022-09-03T05:12:43.420Z,981.9
2022-09-03T05:14:45.033Z,981.9
2022-09-03T05:16:52.633Z,982
2022-09-03T05:18:48.443Z,982
2022-09-03T05:22:51.047Z,982
2022-09-03T05:24:52.608Z,982
2022-09-03T05:26:53.608Z,981.9
2022-09-03T05:28:54.774Z,981.9
2022-09-03T05:30:56.148Z,981.9
2022-09-03T05:32:57.215Z,981.9
2022-09-03T05:34:59.029Z,981.9
2022-09-03T05:39:01.844Z,982
2022-09-03T05:41:03.444Z,982
2022-09-03T05:43:13.013Z,982
2022-09-03T05:45:06.050Z,981.9
2022-09-03T05:47:07.804Z,981.9
2022-09-03T05:49:08.844Z,981.9
2022-09-03T05:51:10.071Z,981.8
2022-09-03T05:53:11.363Z,981.7
2022-09-03T05:55:13.505Z,981.7
2022-09-03T05:57:13.837Z,981.8
2022-09-03T05:59:14.774Z,981.7
2022-09-03T06:01:16.202Z,981.8
2022-09-03T06:03:18.199Z,981.8
2022-09-03T06:05:19.098Z,981.8
2022-09-03T06:07:20.565Z,981.9
2022-09-03T06:09:23.246Z,981.8
2022-09-03T06:11:23.139Z,981.8
2022-09-03T06:13:24.675Z,981.8
2022-09-03T06:15:25.648Z,981.9
2022-09-03T06:17:27.054Z,981.8
2022-09-03T06:19:28.160Z,981.8
2022-09-03T06:21:29.935Z,981.8
2022-09-03T06:22:39.955Z,981.8
2022-09-03T06:24:41.708Z,981.8
2022-09-03T06:26:43.278Z,981.9
2022-09-03T06:28:44.271Z,981.8
2022-09-03T06:30:45.617Z,982
2022-09-03T06:32:47.104Z,981.9
2022-09-03T06:34:48.111Z,982
2022-09-03T06:36:49.156Z,981.9
2022-09-03T06:38:50.635Z,981.9
2022-09-03T06:40:52.257Z,981.9
2022-09-03T06:42:53.974Z,981.9
2022-09-03T06:44:55.799Z,982
2022-09-03T06:46:56.985Z,982
2022-09-03T06:48:58.089Z,982
2022-09-03T06:50:59.531Z,981.9
2022-09-03T06:53:00.421Z,982
2022-09-03T06:55:01.537Z,981.9
2022-09-03T06:57:02.858Z,981.9
2022-09-03T06:59:04.631Z,981.8
2022-09-03T07:01:05.865Z,981.8
2022-09-03T07:03:07.072Z,981.9
2022-09-03T07:05:08.105Z,981.8
2022-09-03T07:07:09.491Z,981.9
2022-09-03T07:09:10.564Z,981.8
2022-09-03T07:11:12.414Z,982
2022-09-03T07:13:13.533Z,982
2022-09-03T07:15:14.905Z,982
2022-09-03T07:17:16.433Z,982
2022-09-03T07:19:17.880Z,981.9
2022-09-03T07:21:19.472Z,982
2022-09-03T07:25:22.303Z,982
2022-09-03T07:27:24.103Z,981.9
2022-09-03T07:29:25.426Z,981.9
2022-09-03T07:31:26.590Z,981.9
2022-09-03T07:33:31.720Z,981.9
2022-09-03T07:35:29.721Z,981.9
2022-09-03T07:37:30.783Z,981.8
2022-09-03T07:39:32.640Z,981.9
2022-09-03T07:41:33.500Z,982
2022-09-03T07:43:34.774Z,981.9
2022-09-03T07:45:36.135Z,981.9
2022-09-03T07:47:37.453Z,981.9
2022-09-03T07:51:40.967Z,982
2022-09-03T07:53:43.543Z,982
2022-09-03T07:55:44.702Z,981.9
2022-09-03T07:57:46.352Z,981.9
2022-09-03T07:59:47.416Z,981.9
2022-09-03T08:01:48.807Z,981.9
2022-09-03T08:03:49.908Z,981.9
2022-09-03T08:05:51.186Z,981.9
2022-09-03T08:07:52.977Z,982
2022-09-03T08:09:54.639Z,982.1
2022-09-03T08:11:56.323Z,982.1
2022-09-03T08:13:57.138Z,982.2
2022-09-03T08:15:58.788Z,982.2
2022-09-03T08:18:03.372Z,982.2
2022-09-03T08:20:01.504Z,982.2
2022-09-03T08:22:02.396Z,982.2
2022-09-03T08:24:03.884Z,982.2
2022-09-03T08:26:04.791Z,982.1
2022-09-03T08:28:05.898Z,982.1
2022-09-03T08:30:07.076Z,982.1
2022-09-03T08:32:08.695Z,982.1
2022-09-03T08:34:09.801Z,982.2
2022-09-03T08:36:11.183Z,982.1
2022-09-03T08:38:12.681Z,982
2022-09-03T08:40:13.586Z,982.1
2022-09-03T08:42:15.143Z,982.1
2022-09-03T08:44:16.575Z,982.1
2022-09-03T08:46:17.813Z,982
2022-09-03T08:50:19.753Z,982.2
2022-09-03T08:52:20.648Z,982.2
2022-09-03T08:54:22.186Z,982.2
2022-09-03T08:56:23.380Z,982.2
2022-09-03T08:58:24.614Z,982.1
2022-09-03T09:00:26.017Z,982.1
2022-09-03T09:02:26.981Z,982.1
2022-09-03T09:06:30.437Z,982.1
2022-09-03T09:08:31.294Z,982.1
2022-09-03T09:10:32.222Z,982.1
2022-09-03T09:12:39.896Z,982.1
2022-09-03T09:14:34.777Z,982
2022-09-03T09:16:35.765Z,982
2022-09-03T09:20:38.210Z,982.1
2022-09-03T09:22:40.716Z,982.1
2022-09-03T09:24:42.402Z,982.1
2022-09-03T09:26:43.385Z,982
2022-09-03T09:30:45.459Z,982
2022-09-03T09:32:46.432Z,982
2022-09-03T09:36:49.376Z,982
2022-09-03T09:38:50.323Z,982
2022-09-03T09:40:51.213Z,982
2022-09-03T09:42:52.339Z,982
2022-09-03T09:44:53.801Z,982
2022-09-03T09:46:55.165Z,982
2022-09-03T09:48:56.683Z,982
2022-09-03T09:51:06.824Z,982
2022-09-03T09:52:59.174Z,981.9
2022-09-03T09:54:59.818Z,981.9
2022-09-03T09:57:01.360Z,981.9
2022-09-03T09:59:02.470Z,981.9
2022-09-03T10:01:03.870Z,981.9
2022-09-03T10:03:04.682Z,982
2022-09-03T10:05:05.608Z,982
2022-09-03T10:07:07.262Z,981.9
2022-09-03T10:09:08.790Z,981.9
2022-09-03T10:11:09.704Z,982
2022-09-03T10:13:10.797Z,981.9
2022-09-03T10:15:12.292Z,982
2022-09-03T10:17:13.365Z,981.9
2022-09-03T10:19:14.406Z,981.9
2022-09-03T10:21:15.561Z,981.9
2022-09-03T10:23:17.159Z,981.9
2022-09-03T10:25:18.886Z,981.9
2022-09-03T10:27:20.869Z,981.9
2022-09-03T10:29:22.313Z,982
2022-09-03T10:31:23.877Z,982
2022-09-03T10:33:24.617Z,982.1
2022-09-03T10:35:25.456Z,982
2022-09-03T10:37:27.016Z,982
2022-09-03T10:39:28.642Z,981.9
2022-09-03T10:41:29.907Z,981.9
2022-09-03T10:43:30.659Z,981.9
2022-09-03T10:45:31.709Z,981.9
2022-09-03T10:47:32.713Z,981.9
2022-09-03T10:49:33.943Z,981.9
2022-09-03T10:51:34.859Z,981.9
2022-09-03T10:53:36.318Z,981.9
2022-09-03T10:55:37.548Z,981.8
2022-09-03T10:57:38.294Z,981.8
2022-09-03T11:01:40.451Z,981.7
2022-09-03T11:03:41.979Z,981.7
2022-09-03T11:05:43.049Z,981.5
2022-09-03T11:07:44.005Z,981.5
2022-09-03T11:11:46.806Z,981.5
2022-09-03T11:13:47.941Z,981.5
2022-09-03T11:17:51.114Z,981.5
2022-09-03T11:19:52.845Z,981.5
2022-09-03T11:21:54.322Z,981.6
2022-09-03T11:23:55.405Z,981.5
2022-09-03T11:25:56.560Z,981.6
2022-09-03T11:27:58.092Z,981.6
2022-09-03T11:29:58.992Z,981.6
2022-09-03T11:32:00.375Z,981.6
2022-09-03T11:34:02.206Z,981.5
2022-09-03T11:36:03.400Z,981.4
2022-09-03T11:38:04.887Z,981.3
2022-09-03T11:40:05.699Z,981.3
2022-09-03T11:42:07.309Z,981.3
2022-09-03T11:44:08.073Z,981.3
2022-09-03T11:48:10.645Z,981.3
2022-09-03T11:50:12.138Z,981.3
2022-09-03T11:52:13.300Z,981.2
2022-09-03T11:54:14.831Z,981.2
2022-09-03T11:56:16.554Z,981.2
2022-09-03T11:58:17.506Z,981.2
2022-09-03T12:00:18.556Z,981.2
2022-09-03T12:02:19.903Z,981.2
2022-09-03T12:04:20.955Z,981.3
2022-09-03T12:06:22.462Z,981.3
2022-09-03T12:08:24.033Z,981.2
2022-09-03T12:10:25.585Z,981.2
2022-09-03T12:12:27.319Z,981.2
2022-09-03T12:16:30.695Z,981.3
2022-09-03T12:18:32.063Z,981.3
2022-09-03T12:20:33.215Z,981.3
2022-09-03T12:22:34.983Z,981.3
2022-09-03T12:24:37.970Z,981.2
2022-09-03T12:26:38.125Z,981.3
2022-09-03T12:28:41.326Z,981.3
2022-09-03T12:30:40.502Z,981.5
2022-09-03T12:32:41.924Z,981.4
2022-09-03T12:34:43.526Z,981.4
2022-09-03T12:36:44.772Z,981.5
2022-09-03T12:39:10.276Z,981.5
2022-09-03T12:42:47.938Z,981.5
2022-09-03T12:44:49.022Z,981.5
2022-09-03T12:47:33.293Z,981.5
2022-09-03T12:49:29.131Z,981.4
2022-09-03T12:50:56.455Z,981.5
2022-09-03T12:52:53.123Z,981.5
2022-09-03T12:54:54.422Z,981.5
2022-09-03T12:56:55.543Z,981.5
2022-09-03T12:58:56.913Z,981.6
2022-09-03T13:00:58.280Z,981.5
2022-09-03T13:02:59.700Z,981.5
2022-09-03T13:05:00.515Z,981.6
2022-09-03T13:07:01.954Z,981.5
2022-09-03T13:09:47.295Z,981.5
2022-09-03T13:11:48.259Z,981.5
2022-09-03T13:13:49.789Z,981.4
2022-09-03T13:15:51.427Z,981.5
2022-09-03T13:17:52.954Z,981.5
2022-09-03T13:19:53.896Z,981.4
2022-09-03T13:21:55.246Z,981.4
2022-09-03T13:23:57.023Z,981.4
2022-09-03T13:26:00.714Z,981.5
2022-09-03T13:28:00.309Z,981.4
2022-09-03T13:30:01.797Z,981.4
2022-09-03T13:32:05.897Z,981.5
2022-09-03T13:36:04.676Z,981.5
2022-09-03T13:38:05.952Z,981.5
2022-09-03T13:40:06.894Z,981.4
2022-09-03T13:42:07.826Z,981.4
2022-09-03T13:44:09.499Z,981.4
2022-09-03T13:46:10.721Z,981.3
2022-09-03T13:48:11.819Z,981.4
2022-09-03T13:52:14.881Z,981.5
2022-09-03T13:54:26.278Z,981.4
2022-09-03T13:56:17.503Z,981.5
2022-09-03T13:58:19.057Z,981.4
2022-09-03T14:00:20.729Z,981.5
2022-09-03T14:02:22.382Z,981.4
2022-09-03T14:04:24.092Z,981.4
2022-09-03T14:06:25.301Z,981.4
2022-09-03T14:08:26.426Z,981.5
2022-09-03T14:10:28.135Z,981.5
2022-09-03T14:12:29.302Z,981.4
2022-09-03T14:14:31.027Z,981.5
2022-09-03T14:16:32.065Z,981.3
2022-09-03T14:18:33.196Z,981.3
2022-09-03T14:20:34.758Z,981.2
2022-09-03T14:22:36.492Z,981.3
2022-09-03T14:24:38.187Z,981.3
2022-09-03T14:26:40.056Z,981.3
2022-09-03T14:28:40.705Z,981.3
2022-09-03T14:30:41.662Z,981.3
2022-09-03T14:32:43.164Z,981.3
2022-09-03T14:34:44.468Z,981.3
2022-09-03T14:36:45.589Z,981.2
2022-09-03T14:38:46.847Z,981.3
2022-09-03T14:40:48.223Z,981.2
2022-09-03T14:42:49.325Z,981.2
2022-09-03T14:44:50.176Z,981.2
2022-09-03T14:46:51.079Z,981.2
2022-09-03T14:48:52.044Z,981.2
2022-09-03T14:50:55.112Z,981.2
2022-09-03T14:52:54.464Z,981.2
2022-09-03T14:54:55.657Z,981.2
2022-09-03T14:56:56.755Z,981.2
2022-09-03T14:58:58.584Z,981.2
2022-09-03T15:00:59.551Z,981.2
2022-09-03T15:03:00.476Z,981.2
2022-09-03T15:05:01.390Z,981.2
2022-09-03T15:07:03.153Z,981.2
2022-09-03T15:09:04.653Z,981.3
2022-09-03T15:11:05.738Z,981.2
2022-09-03T15:13:07.471Z,981.3
2022-09-03T15:17:10.156Z,981.3
2022-09-03T15:19:11.558Z,981.3
2022-09-03T15:21:13.069Z,981.2
2022-09-03T15:23:14.836Z,981.3
2022-09-03T15:25:15.965Z,981.4
2022-09-03T15:27:17.628Z,981.3
2022-09-03T15:29:19.110Z,981.4
2022-09-03T15:31:20.928Z,981.3
2022-09-03T15:33:21.953Z,981.3
2022-09-03T15:35:23.047Z,981.4
2022-09-03T15:37:24.456Z,981.5
2022-09-03T15:39:25.577Z,981.4
2022-09-03T15:41:26.413Z,981.5
2022-09-03T15:43:27.882Z,981.5
2022-09-03T15:45:28.976Z,981.4
2022-09-03T15:47:30.034Z,981.4
2022-09-03T15:49:31.149Z,981.5
2022-09-03T15:51:32.581Z,981.5
2022-09-03T15:53:34.156Z,981.6
2022-09-03T15:55:35.473Z,981.7
2022-09-03T15:57:37.003Z,981.7
2022-09-03T15:59:38.151Z,981.7
2022-09-03T16:01:39.596Z,981.8
2022-09-03T16:03:40.993Z,981.7
2022-09-03T16:05:42.379Z,981.8
2022-09-03T16:07:43.899Z,981.7
2022-09-03T16:09:50.272Z,981.6
2022-09-03T16:11:47.211Z,981.7
2022-09-03T16:15:49.921Z,981.6
2022-09-03T16:17:51.342Z,981.5
2022-09-03T16:19:52.810Z,981.5
2022-09-03T16:21:53.893Z,981.5
2022-09-03T16:23:54.744Z,981.5
2022-09-03T16:25:55.863Z,981.6
2022-09-03T16:27:57.453Z,981.9
2022-09-03T16:29:58.312Z,981.9
2022-09-03T16:31:59.435Z,982
2022-09-03T16:34:00.744Z,982
2022-09-03T16:36:02.332Z,982
2022-09-03T16:38:04.000Z,982.1
2022-09-03T16:40:05.236Z,982.1
2022-09-03T16:42:06.867Z,982.1
2022-09-03T16:44:08.522Z,982
2022-09-03T16:46:10.343Z,982
2022-09-03T16:48:11.274Z,982.1
2022-09-03T16:50:12.456Z,982.2
2022-09-03T16:52:13.779Z,982.2
2022-09-03T16:54:15.377Z,982.1
2022-09-03T16:56:17.420Z,982.2
2022-09-03T16:58:18.303Z,982.2
2022-09-03T17:00:20.082Z,982.3
2022-09-03T17:02:39.781Z,982.2
2022-09-03T17:04:22.964Z,982.2
2022-09-03T17:06:24.572Z,982.2
2022-09-03T17:08:26.055Z,982.2
2022-09-03T17:10:27.533Z,982.2
2022-09-03T17:12:28.519Z,982.2
2022-09-03T17:14:30.042Z,982.2
2022-09-03T17:16:31.042Z,982.3
2022-09-03T17:18:32.300Z,982.4
2022-09-03T17:20:33.862Z,982.4
2022-09-03T17:22:35.203Z,982.5
2022-09-03T17:24:36.385Z,982.4
2022-09-03T17:26:37.797Z,982.5
2022-09-03T17:28:39.330Z,982.5
2022-09-03T17:30:40.722Z,982.5
2022-09-03T17:32:41.883Z,982.5
2022-09-03T17:34:43.200Z,982.4
2022-09-03T17:36:44.578Z,982.4
2022-09-03T17:40:48.078Z,982.5
2022-09-03T17:42:49.429Z,982.5
2022-09-03T17:44:50.430Z,982.4
2022-09-03T17:46:52.138Z,982.5
2022-09-03T17:48:53.201Z,982.4
2022-09-03T17:50:54.359Z,982.4
2022-09-03T17:52:55.338Z,982.5
2022-09-03T17:54:56.924Z,982.6
2022-09-03T17:56:58.195Z,982.6
2022-09-03T17:58:59.102Z,982.6
2022-09-03T18:01:00.815Z,982.6
2022-09-03T18:03:01.972Z,982.7
2022-09-03T18:05:03.733Z,982.7
2022-09-03T18:07:05.058Z,982.9
2022-09-03T18:09:06.411Z,982.9
2022-09-03T18:11:07.675Z,983
2022-09-03T18:13:08.809Z,983
2022-09-03T18:15:09.912Z,983
2022-09-03T18:17:11.534Z,983.1
2022-09-03T18:19:12.890Z,983.1
2022-09-03T18:21:24.266Z,983.2
2022-09-03T18:23:15.634Z,983.1
2022-09-03T18:25:16.764Z,983.2
2022-09-03T18:27:18.210Z,983.2
2022-09-03T18:29:19.898Z,983.3
2022-09-03T18:31:21.649Z,983.2
2022-09-03T18:33:23.182Z,983.3
2022-09-03T18:35:24.363Z,983.3
2022-09-03T18:37:25.488Z,983.3
2022-09-03T18:39:26.761Z,983.3
2022-09-03T18:41:28.109Z,983.3
2022-09-03T18:43:29.053Z,983.3
2022-09-03T18:45:42.219Z,983.3
2022-09-03T18:48:04.446Z,983.3
2022-09-03T18:49:32.754Z,983.3
2022-09-03T18:51:34.035Z,983.4
2022-09-03T18:53:43.429Z,983.3
2022-09-03T18:55:36.611Z,983.4
2022-09-03T18:57:37.957Z,983.3
2022-09-03T18:59:39.370Z,983.3
2022-09-03T19:01:41.253Z,983.4
2022-09-03T19:05:43.610Z,983.4
2022-09-03T19:07:44.665Z,983.3
2022-09-03T19:09:46.143Z,983.3
2022-09-03T19:11:50.186Z,983.4
2022-09-03T19:15:50.672Z,983.4
2022-09-03T19:17:51.542Z,983.4
2022-09-03T19:19:53.099Z,983.4
2022-09-03T19:21:59.171Z,983.5
2022-09-03T19:23:56.000Z,983.4
2022-09-03T19:25:57.889Z,983.5
2022-09-03T19:28:00.248Z,983.4
2022-09-03T19:30:01.670Z,983.4
2022-09-03T19:32:02.805Z,983.4
2022-09-03T19:34:03.844Z,983.4
2022-09-03T19:36:04.760Z,983.4
2022-09-03T19:38:06.191Z,983.4
2022-09-03T19:40:07.679Z,983.5
2022-09-03T19:42:09.431Z,983.5
2022-09-03T19:44:10.463Z,983.5
2022-09-03T19:46:11.987Z,983.6
2022-09-03T19:48:13.191Z,983.5
2022-09-03T19:50:14.188Z,983.5
2022-09-03T19:52:15.632Z,983.5
2022-09-03T19:52:59.406Z,983.5
2022-09-03T19:55:00.283Z,983.4
2022-09-03T19:57:01.653Z,983.4
2022-09-03T19:59:03.099Z,983.5
2022-09-03T20:01:04.678Z,983.5
2022-09-03T20:03:06.411Z,983.5
2022-09-03T20:05:08.033Z,983.5
2022-09-03T20:07:09.241Z,983.6
2022-09-03T20:09:10.790Z,983.6
2022-09-03T20:11:11.716Z,983.6
2022-09-03T20:13:12.931Z,983.6
2022-09-03T20:15:14.005Z,983.6
2022-09-03T20:17:14.953Z,983.6
2022-09-03T20:19:16.155Z,983.6
2022-09-03T20:21:17.408Z,983.6
2022-09-03T20:23:18.713Z,983.7
2022-09-03T20:25:20.498Z,983.7
2022-09-03T20:27:22.376Z,983.7
2022-09-03T20:29:23.922Z,983.8
2022-09-03T20:31:25.879Z,983.8
2022-09-03T20:33:27.577Z,983.9
2022-09-03T20:35:28.517Z,983.9
2022-09-03T20:37:30.061Z,983.9
2022-09-03T20:39:31.369Z,983.9
2022-09-03T20:41:32.580Z,983.9
2022-09-03T20:43:33.768Z,983.8
2022-09-03T20:45:35.405Z,983.8
2022-09-03T20:47:36.939Z,983.7
2022-09-03T20:49:38.285Z,983.7
2022-09-03T20:51:39.312Z,983.8
2022-09-03T20:53:40.823Z,983.8
2022-09-03T20:55:42.165Z,983.8
2022-09-03T20:57:43.473Z,983.9
2022-09-03T20:59:44.768Z,983.8
2022-09-03T21:01:46.624Z,983.9
2022-09-03T21:03:47.639Z,984
2022-09-03T21:05:48.599Z,983.9
2022-09-03T21:07:50.120Z,983.9
2022-09-03T21:09:53.028Z,983.9
2022-09-03T21:11:53.317Z,984
2022-09-03T21:13:55.152Z,984.1
2022-09-03T21:15:56.901Z,984.1
2022-09-03T21:17:58.383Z,984
2022-09-03T21:20:00.166Z,984
2022-09-03T21:24:02.579Z,984
2022-09-03T21:26:03.873Z,983.9
2022-09-03T21:28:04.899Z,984.1
2022-09-03T21:30:06.386Z,983.9
2022-09-03T21:34:08.371Z,984
2022-09-03T21:36:09.295Z,984.1
2022-09-03T21:40:12.174Z,984.1
2022-09-03T21:42:13.794Z,984.1
2022-09-03T21:44:14.867Z,984.2
2022-09-03T21:46:16.440Z,984.1
2022-09-03T21:48:17.465Z,984.2
2022-09-03T21:50:19.282Z,984.1
2022-09-03T21:52:20.372Z,984.1
2022-09-03T21:54:22.051Z,984.1
2022-09-03T21:56:23.161Z,984.2
2022-09-03T21:58:24.936Z,984.2
2022-09-03T22:00:26.649Z,984.2
2022-09-03T22:02:28.203Z,984.2
2022-09-03T22:04:29.258Z,984.2
2022-09-03T22:06:31.063Z,984.1
2022-09-03T22:08:32.713Z,984.1
2022-09-03T22:10:34.141Z,984.1
2022-09-03T22:12:35.141Z,984.2
2022-09-03T22:14:36.719Z,984.3
2022-09-03T22:16:38.201Z,984.2
2022-09-03T22:18:39.428Z,984.3
2022-09-03T22:22:42.015Z,984.2
2022-09-03T22:24:43.930Z,984.2
2022-09-03T22:26:45.487Z,984.2
2022-09-03T22:28:46.652Z,984.3
2022-09-03T22:30:48.187Z,984.3
2022-09-03T22:32:49.912Z,984.3
2022-09-03T22:34:50.935Z,984.3
2022-09-03T22:36:52.428Z,984.3
2022-09-03T22:38:53.868Z,984.3
2022-09-03T22:40:55.109Z,984.2
2022-09-03T22:42:56.998Z,984.3
2022-09-03T22:44:58.312Z,984.3
2022-09-03T22:46:59.319Z,984.3
2022-09-03T22:49:00.886Z,984.3
2022-09-03T22:51:02.753Z,984.2
2022-09-03T22:53:03.438Z,984.2
2022-09-03T22:55:04.555Z,984.3
2022-09-03T22:57:05.465Z,984.2
2022-09-03T22:59:06.612Z,984.3
2022-09-03T23:01:08.128Z,984.3
2022-09-03T23:03:09.708Z,984.3
2022-09-03T23:05:11.020Z,984.4
2022-09-03T23:07:12.788Z,984.3
2022-09-03T23:09:13.913Z,984.3
2022-09-03T23:11:15.006Z,984.3
2022-09-03T23:13:16.343Z,984.3
2022-09-03T23:15:18.031Z,984.3
2022-09-03T23:17:19.181Z,984.4
2022-09-03T23:21:21.934Z,984.3
2022-09-03T23:23:23.822Z,984.3
2022-09-03T23:25:25.296Z,984.4
2022-09-03T23:27:27.029Z,984.4
2022-09-03T23:29:28.364Z,984.5
2022-09-03T23:31:30.062Z,984.4
2022-09-03T23:33:31.895Z,984.4
2022-09-03T23:35:33.283Z,984.4
2022-09-03T23:39:36.043Z,984.5
2022-09-03T23:41:37.315Z,984.6
2022-09-03T23:43:38.967Z,984.5
2022-09-03T23:47:42.247Z,984.6
2022-09-03T23:49:43.927Z,984.6
2022-09-03T23:51:45.471Z,984.6
2022-09-03T23:53:47.243Z,984.6
2022-09-03T23:55:49.024Z,984.5
2022-09-03T23:57:50.161Z,984.6
2022-09-03T23:59:51.490Z,984.6
